Time;durP1;ratioP1;P1;durP2;ratioP2;P2;SDS_P1;SDS_P2;PMS_P1;PMS_P2;Temp;Humidity;BMP_temperature;BMP_pressure;BME280_temperature;BME280_humidity;BME280_pressure;Samples;Min_cycle;Max_cycle;Signal;HPM_P1;HPM_P2
2022/07/05 00:00:06;;;;;;;17.05;8.40;;;;;;;-147.27;100.00;65176.34;4975783;28;20031;-61
2022/07/05 00:02:38;;;;;;;14.63;5.87;;;;;;;-147.27;100.00;65176.34;4974374;28;20041;-60
2022/07/05 00:05:03;;;;;;;9.55;5.43;;;;;;;-147.27;100.00;65176.34;4975941;28;21141;-60
2022/07/05 00:07:29;;;;;;;14.48;7.10;;;;;;;-147.27;100.00;65176.34;4973796;28;20096;-59
2022/07/05 00:09:57;;;;;;;20.60;9.55;;;;;;;-147.27;100.00;65176.34;4963839;28;20039;-61
2022/07/05 00:12:25;;;;;;;22.30;6.50;;;;;;;-147.27;100.00;65176.34;4977464;28;20039;-60
2022/07/05 00:14:51;;;;;;;13.17;6.60;;;;;;;-147.27;100.00;65176.34;4975245;28;20265;-60
2022/07/05 00:17:17;;;;;;;15.40;5.67;;;;;;;-147.27;100.00;65176.34;4977375;28;20280;-60
2022/07/05 00:19:43;;;;;;;13.43;6.85;;;;;;;-147.27;100.00;65176.34;4976167;28;20031;-59
2022/07/05 00:22:08;;;;;;;8.43;5.40;;;;;;;-147.27;100.00;65176.34;4976248;28;20070;-60
2022/07/05 00:24:34;;;;;;;11.70;5.78;;;;;;;-147.27;100.00;65176.34;4975961;28;20572;-60
2022/07/05 00:27:01;;;;;;;9.05;5.47;;;;;;;-147.27;100.00;65176.34;4974610;28;20046;-59
2022/07/05 00:29:27;;;;;;;11.60;6.73;;;;;;;-147.27;100.00;65176.34;4963361;28;20098;-59
2022/07/05 00:31:53;;;;;;;12.57;6.65;;;;;;;-147.27;100.00;65176.34;4977287;28;20376;-60
2022/07/05 00:34:19;;;;;;;9.10;5.70;;;;;;;-147.27;100.00;65176.34;4976783;28;20078;-59
2022/07/05 00:36:45;;;;;;;15.53;7.17;;;;;;;-147.27;100.00;65176.34;4981075;28;20043;-59
2022/07/05 00:39:10;;;;;;;;;;;;;;;-147.27;100.00;65176.34;4977229;28;20272;-60
2022/07/05 00:41:36;;;;;;;11.50;6.23;;;;;;;-147.27;100.00;65176.34;4979935;28;19978;-59
2022/07/05 00:44:08;;;;;;;14.00;6.50;;;;;;;-147.27;100.00;65176.34;4981409;28;20035;-60
2022/07/05 00:46:35;;;;;;;11.77;6.03;;;;;;;-147.27;100.00;65176.34;4966779;28;20273;-62
2022/07/05 00:49:02;;;;;;;16.67;6.80;;;;;;;-147.27;100.00;65176.34;4975790;28;20285;-60
2022/07/05 00:51:35;;;;;;;11.13;5.57;;;;;;;-147.27;100.00;65176.34;4975805;28;20281;-60
2022/07/05 00:54:01;;;;;;;11.43;5.73;;;;;;;-147.27;100.00;65176.34;4975828;28;20281;-60
2022/07/05 00:56:27;;;;;;;12.80;6.37;;;;;;;-147.27;100.00;65176.34;4972587;28;20285;-60
2022/07/05 00:58:53;;;;;;;80.25;39.75;;;;;;;-147.27;100.00;65176.34;4974694;28;20273;-59
2022/07/05 01:01:20;;;;;;;24.00;12.57;;;;;;;-147.27;100.00;65176.34;4980874;28;20062;-61
2022/07/05 01:03:46;;;;;;;7.40;5.63;;;;;;;-147.27;100.00;65176.34;4973146;28;20261;-60
2022/07/05 01:06:13;;;;;;;17.00;6.35;;;;;;;-147.27;100.00;65176.34;4980215;28;20061;-58
2022/07/05 01:08:41;;;;;;;10.73;6.23;;;;;;;-147.27;100.00;65176.34;4974662;28;20035;-60
2022/07/05 01:11:08;;;;;;;13.97;6.13;;;;;;;-147.27;100.00;65176.34;4975400;28;20270;-59
2022/07/05 01:13:35;;;;;;;12.30;5.93;;;;;;;-147.27;100.00;65176.34;4974608;28;20670;-60
2022/07/05 01:16:01;;;;;;;9.47;5.57;;;;;;;-147.27;100.00;65176.34;4972636;28;20309;-59
2022/07/05 01:18:28;;;;;;;13.65;6.88;;;;;;;-147.27;100.00;65176.34;4965595;28;20273;-60
2022/07/05 01:20:54;;;;;;;13.17;7.50;;;;;;;-147.27;100.00;65176.34;4974050;28;20027;-60
2022/07/05 01:23:20;;;;;;;17.42;6.65;;;;;;;-147.27;100.00;65176.34;4975975;28;20280;-59
2022/07/05 01:25:47;;;;;;;14.37;8.20;;;;;;;-147.27;100.00;65176.34;4975038;28;20041;-61
2022/07/05 01:28:14;;;;;;;13.40;6.00;;;;;;;-147.27;100.00;65176.34;4975259;28;20272;-60
2022/07/05 01:30:42;;;;;;;12.07;6.87;;;;;;;-147.27;100.00;65176.34;4976973;28;20281;-60
2022/07/05 01:33:08;;;;;;;9.43;6.13;;;;;;;-147.27;100.00;65176.34;4974806;28;20292;-60
2022/07/05 01:35:34;;;;;;;;;;;;;;;-147.27;100.00;65176.34;4972624;28;20294;-60
2022/07/05 01:38:00;;;;;;;13.40;7.17;;;;;;;-147.27;100.00;65176.34;4976166;28;19945;-60
2022/07/05 01:40:25;;;;;;;9.55;6.20;;;;;;;-147.27;100.00;65176.34;4976428;28;20065;-61
2022/07/05 01:42:51;;;;;;;11.68;6.18;;;;;;;-147.27;100.00;65176.34;4975283;28;20032;-60
2022/07/05 01:48:06;;;;;;;10.17;6.33;;;;;;;-147.27;100.00;65176.34;4966697;28;20042;-60
2022/07/05 01:50:35;;;;;;;8.90;5.97;;;;;;;-147.27;100.00;65176.34;4991755;28;20304;-60
2022/07/05 01:53:03;;;;;;;9.07;5.90;;;;;;;-147.27;100.00;65176.34;4982002;28;20276;-60
2022/07/05 01:55:29;;;;;;;24.90;7.13;;;;;;;-147.27;100.00;65176.34;4978499;28;20277;-61
2022/07/05 01:57:55;;;;;;;10.93;6.93;;;;;;;-147.27;100.00;65176.34;4969569;28;20289;-60
2022/07/05 02:00:20;;;;;;;13.38;7.80;;;;;;;-147.27;100.00;65176.34;4978138;28;20066;-61
2022/07/05 02:02:46;;;;;;;13.07;6.43;;;;;;;-147.27;100.00;65176.34;5005541;28;20039;-60
2022/07/05 02:05:12;;;;;;;12.20;6.10;;;;;;;-147.27;100.00;65176.34;4976774;28;20027;-60
2022/07/05 02:07:49;;;;;;;11.07;6.20;;;;;;;-147.27;100.00;65176.34;4982974;28;20031;-60
2022/07/05 02:10:15;;;;;;;10.33;6.50;;;;;;;-147.27;100.00;65176.34;5018370;28;20333;-60
2022/07/05 02:12:41;;;;;;;10.20;6.10;;;;;;;-147.27;100.00;65176.34;4982331;28;20352;-61
2022/07/05 02:15:08;;;;;;;12.40;6.50;;;;;;;-147.27;100.00;65176.34;4981426;28;20047;-61
2022/07/05 02:17:34;;;;;;;10.30;6.13;;;;;;;-147.27;100.00;65176.34;4982503;28;20268;-60
2022/07/05 02:20:00;;;;;;;14.13;6.38;;;;;;;-147.27;100.00;65176.34;4978815;28;20054;-60
2022/07/05 02:22:26;;;;;;;;;;;;;;;-147.27;100.00;65176.34;4979799;28;20043;-60
2022/07/05 02:24:52;;;;;;;13.00;6.07;;;;;;;-147.27;100.00;65176.34;4978495;28;19978;-60
2022/07/05 02:27:21;;;;;;;10.90;6.30;;;;;;;-147.27;100.00;65176.34;4974635;28;20090;-60
2022/07/05 02:29:48;;;;;;;12.67;6.20;;;;;;;-147.27;100.00;65176.34;5010164;28;20336;-60
2022/07/05 02:32:17;;;;;;;10.97;6.73;;;;;;;-147.27;100.00;65176.34;4970761;28;20273;-60
2022/07/05 02:34:43;;;;;;;18.80;6.47;;;;;;;-147.27;100.00;65176.34;4961958;28;20290;-60
2022/07/05 02:37:10;;;;;;;12.60;6.57;;;;;;;-147.27;100.00;65176.34;4943221;29;20051;-60
2022/07/05 02:39:36;;;;;;;9.30;6.30;;;;;;;-147.27;100.00;65176.34;4959728;29;20278;-61
2022/07/05 02:42:15;;;;;;;14.27;8.20;;;;;;;21.03;100.00;101951.00;5093890;28;20378;-61
2022/07/05 02:44:42;;;;;;;16.00;7.63;;;;;;;21.11;100.00;101957.13;5091773;28;20266;-59
2022/07/05 02:47:08;;;;;;;15.57;8.68;;;;;;;21.01;100.00;101966.72;5096195;28;20269;-60
2022/07/05 02:49:34;;;;;;;11.88;8.13;;;;;;;20.91;100.00;101958.34;5097638;28;20162;-61
2022/07/05 02:52:02;;;;;;;16.53;9.03;;;;;;;20.71;100.00;101945.91;5096322;28;20017;-61
2022/07/05 02:54:29;;;;;;;15.23;8.90;;;;;;;20.86;100.00;101959.03;5095332;28;20269;-61
2022/07/05 02:56:55;;;;;;;14.52;8.40;;;;;;;20.85;100.00;101960.09;5098141;28;20264;-60
2022/07/05 02:59:22;;;;;;;11.67;8.30;;;;;;;20.89;100.00;101960.47;5096621;28;20040;-61
2022/07/05 03:01:48;;;;;;;13.70;9.00;;;;;;;20.88;100.00;101975.13;5092711;28;20278;-61
2022/07/05 03:04:16;;;;;;;14.07;8.67;;;;;;;20.70;100.00;101974.16;5095558;28;20104;-61
2022/07/05 03:06:49;;;;;;;14.57;8.60;;;;;;;20.83;100.00;101966.84;5096956;28;20278;-60
2022/07/05 03:09:14;;;;;;;16.73;7.93;;;;;;;20.92;100.00;101968.97;5093830;28;20280;-60
2022/07/05 03:11:40;;;;;;;;;;;;;;;20.88;100.00;101966.97;5096159;28;20036;-60
2022/07/05 03:14:07;;;;;;;12.88;7.63;;;;;;;20.86;100.00;101972.63;5091087;28;19912;-61
2022/07/05 03:16:33;;;;;;;19.15;8.40;;;;;;;20.78;100.00;101975.69;5094571;28;20101;-61
2022/07/05 03:18:59;;;;;;;16.63;7.75;;;;;;;20.78;100.00;101984.69;5093757;28;20060;-60
2022/07/05 03:21:25;;;;;;;13.18;8.85;;;;;;;20.80;100.00;101986.38;5095504;28;20028;-60
2022/07/05 03:23:52;;;;;;;;;;;;;;;20.88;100.00;101980.56;5094656;28;20042;-61
2022/07/05 03:26:18;;;;;;;17.63;8.07;;;;;;;20.92;100.00;101977.13;5098631;28;19941;-61
2022/07/05 03:28:44;;;;;;;19.98;8.13;;;;;;;21.00;100.00;101978.69;5092382;28;20290;-61
2022/07/05 03:31:11;;;;;;;17.20;9.70;;;;;;;20.91;100.00;101982.81;5097286;28;20028;-61
2022/07/05 03:33:40;;;;;;;27.33;14.00;;;;;;;20.94;100.00;101982.31;5090993;28;20257;-60
2022/07/05 03:36:08;;;;;;;22.03;13.43;;;;;;;20.94;100.00;101995.91;5095825;28;20270;-61
2022/07/05 03:38:36;;;;;;;15.70;8.80;;;;;;;20.67;100.00;101985.50;5092840;28;20261;-61
2022/07/05 03:41:02;;;;;;;18.38;9.98;;;;;;;20.59;100.00;101986.66;5091716;28;20297;-61
2022/07/05 03:43:28;;;;;;;22.30;10.50;;;;;;;20.77;100.00;101985.75;5093933;28;20028;-60
2022/07/05 03:45:55;;;;;;;22.57;13.30;;;;;;;21.09;100.00;101986.47;5092479;28;20158;-62
2022/07/05 03:48:24;;;;;;;22.80;11.10;;;;;;;21.20;100.00;101989.16;5094430;28;20335;-62
2022/07/05 03:50:51;;;;;;;16.07;9.77;;;;;;;21.41;100.00;101991.47;5094504;28;20285;-61
2022/07/05 03:53:16;;;;;;;20.23;11.85;;;;;;;21.04;100.00;101992.59;5077073;28;20029;-61
2022/07/05 03:55:43;;;;;;;;;;;;;;;21.27;100.00;101986.31;5080624;28;20059;-60
2022/07/05 03:58:08;;;;;;;23.90;12.67;;;;;;;21.37;100.00;101993.88;5076326;28;19917;-61
2022/07/05 04:00:34;;;;;;;18.45;10.23;;;;;;;21.38;100.00;101994.69;5082664;28;20033;-60
2022/07/05 04:03:04;;;;;;;23.00;11.40;;;;;;;21.30;100.00;101995.88;5076583;28;20092;-61
2022/07/05 04:05:30;;;;;;;33.80;13.75;;;;;;;20.74;100.00;101996.25;5080734;28;20270;-60
2022/07/05 04:07:57;;;;;;;24.90;13.63;;;;;;;20.62;100.00;101988.09;5076902;28;20024;-61
2022/07/05 04:10:36;;;;;;;28.30;14.73;;;;;;;20.69;100.00;101993.41;5079075;28;20261;-60
2022/07/05 04:13:01;;;;;;;20.52;11.52;;;;;;;20.70;100.00;101989.63;5078417;28;20270;-61
2022/07/05 04:15:29;;;;;;;21.73;12.33;;;;;;;20.59;100.00;101991.28;5081848;28;20036;-61
2022/07/05 04:17:57;;;;;;;28.13;12.50;;;;;;;21.16;100.00;101992.59;5079478;28;20269;-61
2022/07/05 04:20:26;;;;;;;32.33;15.43;;;;;;;21.28;100.00;102000.72;5078664;28;20282;-60
2022/07/05 04:22:52;;;;;;;;;;;;;;;21.27;100.00;101989.03;5083313;28;20273;-60
2022/07/05 04:25:21;;;;;;;39.43;18.97;;;;;;;21.37;100.00;101993.03;5080083;28;19935;-60
2022/07/05 04:27:55;;;;;;;23.03;12.00;;;;;;;21.22;100.00;102001.69;5075112;28;20262;-60
2022/07/05 04:30:24;;;;;;;26.80;13.83;;;;;;;21.09;100.00;102003.59;5080365;28;20250;-61
2022/07/05 04:32:51;;;;;;;20.60;11.00;;;;;;;20.92;100.00;102006.22;5082844;28;20281;-60
2022/07/05 04:35:17;;;;;;;20.38;11.73;;;;;;;20.84;100.00;102006.56;5086457;28;20281;-61
2022/07/05 04:37:44;;;;;;;20.73;12.53;;;;;;;20.74;100.00;102002.50;5083918;28;20044;-61
2022/07/05 04:40:12;;;;;;;22.57;14.63;;;;;;;20.66;100.00;101997.44;5081065;28;20290;-61
2022/07/05 04:42:39;;;;;;;22.43;13.30;;;;;;;20.90;100.00;102000.19;5083876;28;20353;-61
2022/07/05 04:45:08;;;;;;;25.07;13.60;;;;;;;20.87;100.00;102004.19;5080945;28;20277;-61
2022/07/05 04:47:34;;;;;;;30.80;17.27;;;;;;;20.99;100.00;101998.78;5070588;28;20270;-62
2022/07/05 04:50:01;;;;;;;29.73;16.67;;;;;;;20.72;100.00;102007.34;5070262;28;20266;-61
2022/07/05 04:52:28;;;;;;;25.73;15.70;;;;;;;20.88;100.00;102003.16;5073676;28;20269;-61
2022/07/05 04:54:54;;;;;;;27.20;16.10;;;;;;;20.81;100.00;102013.28;5084180;28;20257;-59
2022/07/05 04:57:19;;;;;;;28.52;18.27;;;;;;;21.07;100.00;102003.00;5071194;28;20029;-61
2022/07/05 04:59:45;;;;;;;36.35;16.10;;;;;;;21.22;100.00;102013.41;5076632;28;20105;-61
2022/07/05 05:02:10;;;;;;;30.67;16.33;;;;;;;21.39;100.00;102018.94;5073637;28;20032;-61
2022/07/05 05:04:36;;;;;;;27.00;15.30;;;;;;;21.11;100.00;102016.97;5070556;28;20052;-61
2022/07/05 05:07:01;;;;;;;25.60;14.77;;;;;;;21.24;100.00;102016.72;5073599;28;20064;-61
2022/07/05 05:09:27;;;;;;;20.35;13.68;;;;;;;21.23;100.00;102020.50;5081085;28;20366;-61
2022/07/05 05:11:52;;;;;;;21.15;13.73;;;;;;;21.42;100.00;102023.88;5071682;28;20037;-60
2022/07/05 05:14:18;;;;;;;21.13;12.07;;;;;;;21.08;100.00;102026.41;5074235;28;20092;-62
2022/07/05 05:16:43;;;;;;;23.17;12.13;;;;;;;21.32;100.00;102023.66;5075141;28;20037;-62
2022/07/05 05:19:09;;;;;;;19.17;11.88;;;;;;;21.21;100.00;102025.34;5073258;28;20100;-61
2022/07/05 05:21:35;;;;;;;19.25;11.88;;;;;;;21.04;100.00;102019.78;5075587;28;20037;-61
2022/07/05 05:24:01;;;;;;;19.40;11.23;;;;;;;20.90;100.00;102030.09;5079045;28;20089;-60
2022/07/05 05:26:26;;;;;;;16.48;10.20;;;;;;;20.77;100.00;102026.53;5074617;28;20021;-62
2022/07/05 05:28:52;;;;;;;17.77;11.27;;;;;;;20.86;100.00;102020.75;5078183;28;20039;-61
2022/07/05 05:31:18;;;;;;;18.45;9.88;;;;;;;21.28;100.00;102026.06;5070496;28;20052;-61
2022/07/05 05:33:44;;;;;;;13.88;9.35;;;;;;;21.26;100.00;102020.03;5071555;28;20040;-61
2022/07/05 05:36:10;;;;;;;15.15;9.57;;;;;;;21.48;100.00;102038.44;5070117;28;20033;-62
2022/07/05 05:38:37;;;;;;;16.40;10.02;;;;;;;21.29;100.00;102027.72;5074980;28;20049;-61
2022/07/05 05:41:02;;;;;;;18.50;10.00;;;;;;;21.21;100.00;102030.78;5075472;28;20068;-61
2022/07/05 05:43:28;;;;;;;15.20;9.73;;;;;;;21.15;100.00;102031.72;5077870;28;20035;-61
2022/07/05 05:45:54;;;;;;;20.08;10.18;;;;;;;21.21;100.00;102036.22;5073046;28;20049;-60
2022/07/05 05:48:20;;;;;;;15.77;9.38;;;;;;;20.99;100.00;102028.69;5071311;28;20029;-60
2022/07/05 05:50:47;;;;;;;17.38;9.45;;;;;;;21.26;100.00;102035.50;5071739;28;20025;-60
2022/07/05 05:53:12;;;;;;;;;;;;;;;21.40;100.00;102033.34;5080636;28;20036;-60
2022/07/05 05:55:40;;;;;;;17.33;8.70;;;;;;;21.40;100.00;102042.34;5072454;28;19917;-60
2022/07/05 05:58:30;;;;;;;13.97;8.97;;;;;;;21.28;100.00;102042.38;5071246;28;20040;-61
2022/07/05 06:00:55;;;;;;;16.77;9.97;;;;;;;21.14;100.00;102035.53;5076527;28;20286;-61
2022/07/05 06:03:23;;;;;;;18.47;10.43;;;;;;;21.44;100.00;102038.09;5075838;28;20029;-61
2022/07/05 06:05:49;;;;;;;15.20;8.57;;;;;;;21.56;100.00;102040.78;5079084;28;20292;-61
2022/07/05 06:08:15;;;;;;;13.35;7.60;;;;;;;21.54;100.00;102042.06;5074096;28;20278;-61
2022/07/05 06:10:41;;;;;;;14.52;7.85;;;;;;;21.50;100.00;102047.19;5078950;28;20036;-61
2022/07/05 06:13:09;;;;;;;12.45;7.43;;;;;;;21.26;100.00;102046.38;5079045;28;20040;-62
2022/07/05 06:15:37;;;;;;;19.17;9.73;;;;;;;21.61;100.00;102054.50;5078120;28;20043;-62
2022/07/05 06:18:03;;;;;;;19.07;8.60;;;;;;;21.33;100.00;102058.81;5071811;28;20285;-61
2022/07/05 06:20:33;;;;;;;15.77;8.98;;;;;;;21.25;100.00;102053.75;5076971;28;20041;-62
2022/07/05 06:23:00;;;;;;;16.13;7.10;;;;;;;21.39;100.00;102061.63;5079198;28;20035;-62
2022/07/05 06:25:26;;;;;;;13.20;6.83;;;;;;;21.78;100.00;102059.22;5081025;28;20043;-61
2022/07/05 06:27:59;;;;;;;11.98;6.80;;;;;;;21.55;100.00;102055.44;5072347;28;20040;-61
2022/07/05 06:30:26;;;;;;;14.63;6.50;;;;;;;21.97;100.00;102067.22;5077199;28;20033;-62
2022/07/05 06:32:53;;;;;;;12.00;7.13;;;;;;;21.79;100.00;102063.59;5074808;28;20043;-61
2022/07/05 06:35:20;;;;;;;16.07;6.40;;;;;;;21.95;100.00;102070.16;5072330;28;20051;-62
2022/07/05 06:37:48;;;;;;;11.03;6.33;;;;;;;21.95;100.00;102063.91;5074513;28;20037;-61
2022/07/05 06:40:18;;;;;;;14.40;6.37;;;;;;;22.02;100.00;102065.38;5075901;28;20057;-62
2022/07/05 06:42:43;;;;;;;8.93;5.53;;;;;;;22.34;100.00;102064.91;5074761;28;20037;-62
2022/07/05 06:45:09;;;;;;;10.45;6.28;;;;;;;22.57;100.00;102065.88;5066709;28;20059;-61
2022/07/05 06:47:35;;;;;;;;;;;;;;;22.30;100.00;102065.63;5075418;28;20116;-61
2022/07/05 06:50:03;;;;;;;13.00;5.90;;;;;;;22.09;100.00;102065.25;5075688;28;19912;-61
2022/07/05 06:52:31;;;;;;;15.77;6.77;;;;;;;22.40;100.00;102059.53;5072862;28;20052;-61
2022/07/05 06:55:00;;;;;;;10.57;4.73;;;;;;;22.51;100.00;102075.03;5081205;28;20040;-61
2022/07/05 06:57:26;;;;;;;13.77;5.13;;;;;;;22.66;100.00;102076.34;5071803;28;20047;-61
2022/07/05 06:59:52;;;;;;;;;;;;;;;22.62;100.00;102078.75;5074687;28;20029;-61
2022/07/05 07:02:19;;;;;;;8.13;5.07;;;;;;;22.83;100.00;102073.63;5076944;28;19939;-62
2022/07/05 07:04:46;;;;;;;14.63;6.00;;;;;;;22.57;100.00;102081.38;5080179;28;20033;-62
2022/07/05 07:09:57;;;;;;;13.07;6.17;;;;;;;23.00;100.00;102079.09;5074560;28;20035;-62
2022/07/05 07:12:22;;;;;;;9.63;5.87;;;;;;;22.83;100.00;102084.53;5072322;28;20062;-61
2022/07/05 07:14:47;;;;;;;14.13;6.07;;;;;;;22.86;100.00;102086.78;5077874;28;20088;-61
2022/07/05 07:17:13;;;;;;;8.77;5.57;;;;;;;23.14;100.00;102085.81;5074027;28;20099;-62
2022/07/05 07:19:38;;;;;;;13.82;6.60;;;;;;;23.22;100.00;102089.22;5074349;28;20262;-61
2022/07/05 07:22:04;;;;;;;9.27;6.15;;;;;;;23.62;100.00;102090.88;5075431;28;20067;-62
2022/07/05 07:24:29;;;;;;;11.15;6.18;;;;;;;24.00;100.00;102099.25;5075220;28;20066;-62
2022/07/05 07:27:04;;;;;;;12.02;6.28;;;;;;;24.31;100.00;102102.34;5074299;28;20037;-62
2022/07/05 07:29:31;;;;;;;11.57;7.30;;;;;;;24.62;100.00;102103.44;5074847;28;20032;-60
2022/07/05 07:31:58;;;;;;;19.37;7.47;;;;;;;24.28;100.00;102106.41;5073783;28;20031;-62
2022/07/05 07:34:25;;;;;;;14.93;8.43;;;;;;;24.30;100.00;102104.22;5075649;28;21165;-60
2022/07/05 07:36:51;;;;;;;12.97;7.90;;;;;;;24.40;100.00;102106.25;5083021;28;20094;-61
2022/07/05 07:39:17;;;;;;;;;;;;;;;24.20;100.00;102102.22;5082682;28;20048;-62
2022/07/05 07:41:43;;;;;;;13.03;6.80;;;;;;;24.23;100.00;102111.81;5080559;28;19920;-61
2022/07/05 07:44:08;;;;;;;10.68;6.07;;;;;;;24.18;100.00;102109.03;5081419;28;20032;-61
2022/07/05 07:46:34;;;;;;;15.88;7.50;;;;;;;23.99;100.00;102105.78;5079556;28;20040;-61
2022/07/05 07:49:00;;;;;;;12.90;7.13;;;;;;;24.16;100.00;102109.28;5076605;28;20096;-61
2022/07/05 07:51:25;;;;;;;11.73;7.47;;;;;;;24.37;100.00;102109.50;5078251;28;20033;-61
2022/07/05 07:53:51;;;;;;;14.02;8.30;;;;;;;24.57;100.00;102116.25;5079668;28;20025;-62
2022/07/05 07:56:17;;;;;;;16.63;7.85;;;;;;;24.38;100.00;102115.81;5077905;28;20060;-61
2022/07/05 07:58:42;;;;;;;14.35;7.70;;;;;;;24.25;100.00;102117.03;5081672;28;20045;-61
2022/07/05 08:01:10;;;;;;;14.18;8.07;;;;;;;24.76;100.00;102103.88;5079244;28;20063;-62
2022/07/05 08:03:43;;;;;;;13.40;7.40;;;;;;;25.12;100.00;102105.19;5079249;28;20040;-63
2022/07/05 08:06:10;;;;;;;13.30;7.70;;;;;;;24.56;100.00;102111.88;5075304;28;20044;-62
2022/07/05 08:08:40;;;;;;;16.37;6.57;;;;;;;24.70;100.00;102104.88;5076388;28;20032;-61
2022/07/05 08:11:09;;;;;;;12.20;6.70;;;;;;;24.56;100.00;102107.22;5074317;28;20048;-62
2022/07/05 08:13:35;;;;;;;14.03;6.77;;;;;;;24.66;100.00;102106.47;5081714;28;20025;-61
2022/07/05 08:16:01;;;;;;;;;;;;;;;24.54;100.00;102101.19;5077540;28;20043;-61
2022/07/05 08:23:56;;;;;;;15.33;5.80;;;;;;;24.81;100.00;102110.47;5080293;28;20147;-61
2022/07/05 08:26:22;;;;;;;;;;;;;;;25.14;100.00;102103.88;5082137;28;20033;-61
2022/07/05 08:28:48;;;;;;;10.03;5.27;;;;;;;25.50;100.00;102106.00;5073594;28;19924;-62
2022/07/05 08:31:13;;;;;;;10.85;5.53;;;;;;;24.68;100.00;102098.84;5079758;28;20052;-61
2022/07/05 08:33:39;;;;;;;11.63;6.07;;;;;;;24.35;100.00;102111.66;5083409;28;20036;-61
2022/07/05 08:36:05;;;;;;;12.35;5.78;;;;;;;24.73;100.00;102104.38;5077679;28;20060;-61
2022/07/05 08:38:31;;;;;;;9.30;4.70;;;;;;;24.36;100.00;102115.25;5080776;28;20097;-60
2022/07/05 08:40:56;;;;;;;;;;;;;;;24.08;100.00;102115.22;5087370;28;20045;-61
2022/07/05 08:43:23;;;;;;;14.40;6.07;;;;;;;24.38;100.00;102124.00;5081366;28;19975;-61
2022/07/05 08:45:50;;;;;;;15.37;6.27;;;;;;;24.35;100.00;102108.94;5082355;28;20043;-61
2022/07/05 08:48:16;;;;;;;10.20;5.73;;;;;;;24.62;100.00;102113.56;5082102;28;20033;-60
2022/07/05 08:50:44;;;;;;;16.83;9.93;;;;;;;23.80;100.00;102103.41;5078349;28;20040;-61
2022/07/05 08:53:10;;;;;;;21.83;9.63;;;;;;;23.81;100.00;102113.25;5072810;28;20103;-61
2022/07/05 08:55:35;;;;;;;20.40;9.68;;;;;;;24.27;100.00;102110.22;5075951;28;20032;-61
2022/07/05 08:58:01;;;;;;;;;;;;;;;24.62;100.00;102108.09;5076203;28;20032;-61
2022/07/05 09:00:27;;;;;;;15.37;9.23;;;;;;;24.78;100.00;102106.31;5086727;28;19916;-60
2022/07/05 09:02:54;;;;;;;16.92;10.98;;;;;;;24.60;100.00;102113.00;5080613;28;20029;-60
2022/07/05 09:05:23;;;;;;;19.90;9.10;;;;;;;24.42;100.00;102114.19;5076840;28;20029;-61
2022/07/05 09:08:03;;;;;;;19.93;9.60;;;;;;;24.96;100.00;102105.13;5076708;28;20070;-61
2022/07/05 09:10:30;;;;;;;13.97;7.73;;;;;;;25.37;100.00;102118.22;5076413;28;20025;-60
2022/07/05 09:12:57;;;;;;;22.73;10.63;;;;;;;25.34;100.00;102119.56;5077384;28;20092;-59
2022/07/05 09:15:23;;;;;;;16.53;10.07;;;;;;;25.24;100.00;102125.00;5074121;28;20025;-60
2022/07/05 09:17:49;;;;;;;21.93;9.63;;;;;;;25.57;100.00;102125.75;5079621;28;20051;-60
2022/07/05 09:20:19;;;;;;;;;;;;;;;25.77;100.00;102127.78;5080760;28;20068;-60
2022/07/05 09:22:52;;;;;;;15.90;8.57;;;;;;;26.19;100.00;102131.50;5078590;28;19916;-61
2022/07/05 09:25:28;;;;;;;15.97;7.63;;;;;;;26.66;100.00;102137.03;5074867;28;20032;-59
2022/07/05 09:27:55;;;;;;;14.30;6.72;;;;;;;26.68;100.00;102134.03;5083208;28;20029;-60
2022/07/05 09:30:25;;;;;;;11.70;6.13;;;;;;;26.95;100.00;102141.19;5076231;28;20105;-61
2022/07/05 09:33:11;;;;;;;14.03;7.77;;;;;;;26.99;100.00;102136.78;5079651;28;20037;-60
2022/07/05 09:35:58;;;;;;;16.70;8.45;;;;;;;26.49;100.00;102129.91;5073444;28;20033;-59
2022/07/05 09:38:24;;;;;;;13.77;7.05;;;;;;;26.82;100.00;102134.31;5071534;28;20043;-61
2022/07/05 09:40:55;;;;;;;13.03;7.00;;;;;;;27.18;100.00;102131.53;5076508;28;20102;-61
2022/07/05 09:43:25;;;;;;;12.13;6.20;;;;;;;26.83;100.00;102133.22;5071070;28;20036;-60
2022/07/05 09:45:53;;;;;;;11.70;5.60;;;;;;;26.14;100.00;102122.41;5075755;28;20049;-60
2022/07/05 09:48:20;;;;;;;9.07;5.07;;;;;;;25.77;100.00;102132.41;5075824;28;20028;-61
2022/07/05 09:50:48;;;;;;;10.07;5.67;;;;;;;25.53;100.00;102123.84;5077837;28;20036;-60
2022/07/05 09:53:13;;;;;;;9.40;6.03;;;;;;;25.68;100.00;102134.03;5084237;28;20047;-60
2022/07/05 09:55:40;;;;;;;;;;;;;;;26.26;100.00;102127.66;5076929;28;20033;-60
2022/07/05 09:58:06;;;;;;;7.63;4.70;;;;;;;26.58;100.00;102130.19;5073289;28;19963;-60
2022/07/05 10:00:32;;;;;;;11.57;5.73;;;;;;;28.10;87.27;102142.53;5075917;28;20033;-62
2022/07/05 10:03:02;;;;;;;;;;;;;;;28.63;85.54;102139.97;5078821;28;20033;-61
2022/07/05 10:05:32;;;;;;;8.97;5.20;;;;;;;29.75;76.87;102149.38;5073022;28;19916;-60
2022/07/05 10:07:58;;;;;;;7.75;4.53;;;;;;;30.63;67.74;102141.81;5077710;28;20046;-61
2022/07/05 10:10:27;;;;;;;7.95;5.00;;;;;;;28.90;74.78;102152.44;5076705;28;20085;-61
2022/07/05 10:12:58;;;;;;;11.40;4.63;;;;;;;27.83;79.33;102144.56;5077842;28;20047;-60
2022/07/05 10:15:29;;;;;;;13.45;4.70;;;;;;;29.23;75.00;102149.09;5081567;28;20052;-60
2022/07/05 10:18:09;;;;;;;10.90;4.38;;;;;;;29.65;69.47;102155.00;5070686;28;20078;-60
2022/07/05 10:20:42;;;;;;;6.28;3.58;;;;;;;30.54;66.06;102158.19;5072760;28;20088;-61
2022/07/05 10:23:10;;;;;;;6.35;4.03;;;;;;;29.71;69.87;102156.59;5079647;28;20066;-61
2022/07/05 10:25:38;;;;;;;6.05;3.72;;;;;;;27.85;77.66;102142.34;5075299;28;20120;-60
2022/07/05 10:28:06;;;;;;;7.17;3.33;;;;;;;28.26;76.86;102143.28;5075335;28;20033;-60
2022/07/05 10:30:32;;;;;;;6.18;3.00;;;;;;;29.45;70.19;102148.63;5073250;28;20029;-61
2022/07/05 10:33:01;;;;;;;5.47;3.20;;;;;;;31.32;60.54;102154.97;5079853;28;20047;-61
2022/07/05 10:35:27;;;;;;;6.43;2.20;;;;;;;30.95;56.04;102140.16;5075392;28;20044;-60
2022/07/05 10:37:53;;;;;;;4.25;1.90;;;;;;;30.32;60.17;102145.03;5081292;28;20032;-60
2022/07/05 10:40:19;;;;;;;7.05;2.67;;;;;;;30.55;61.36;102140.50;5075369;28;20084;-61
2022/07/05 10:43:00;;;;;;;6.25;3.00;;;;;;;30.83;58.10;102143.41;5073589;28;20087;-60
2022/07/05 10:45:31;;;;;;;4.85;2.00;;;;;;;30.50;62.70;102145.31;5079456;28;20058;-60
2022/07/05 10:48:17;;;;;;;6.18;2.05;;;;;;;32.21;55.60;102151.19;5072856;28;20044;-60
2022/07/05 10:50:54;;;;;;;2.42;1.27;;;;;;;32.82;53.05;102153.59;5077198;28;20032;-60
2022/07/05 10:53:28;;;;;;;4.50;1.92;;;;;;;31.99;50.40;102146.44;5076505;28;20059;-60
2022/07/05 10:56:11;;;;;;;5.38;1.63;;;;;;;31.99;46.55;102151.97;5081938;28;20055;-59
2022/07/05 10:58:39;;;;;;;2.70;1.40;;;;;;;32.71;47.29;102144.72;5073843;28;20029;-61
2022/07/05 11:01:20;;;;;;;2.60;1.40;;;;;;;32.03;50.31;102133.59;5073409;28;20060;-60
2022/07/05 11:04:07;;;;;;;3.10;1.35;;;;;;;30.58;50.45;102144.63;5076245;28;20040;-60
2022/07/05 11:06:38;;;;;;;2.92;1.25;;;;;;;30.32;52.50;102136.75;5078213;28;20035;-59
2022/07/05 11:09:03;;;;;;;4.05;1.33;;;;;;;30.89;53.08;102141.34;5080433;28;20071;-60
2022/07/05 11:11:31;;;;;;;3.25;1.00;;;;;;;30.09;49.90;102147.56;5079389;28;20097;-60
2022/07/05 11:13:59;;;;;;;2.58;1.00;;;;;;;29.22;55.19;102152.97;5083190;28;20036;-60
2022/07/05 11:16:35;;;;;;;3.28;1.10;;;;;;;29.65;56.77;102148.66;5076365;28;20044;-60
2022/07/05 11:19:05;;;;;;;5.53;1.20;;;;;;;29.76;53.18;102144.69;5075263;28;20096;-60
2022/07/05 11:21:32;;;;;;;4.22;1.35;;;;;;;31.10;47.19;102155.63;5088930;28;20036;-59
2022/07/05 11:24:22;;;;;;;14.32;1.55;;;;;;;30.78;47.45;102151.75;5075365;28;20029;-60